NDF442R EDDH-EVRA
Flight info
| Callsign | NDF442R |
|---|---|
| Flight time | 1h 15m |
| Altitude | 37000 |
| Route | LUGEG3G/33 LUGEG P605 MEGAR DCT KOSEB DCT NINTA DCT ADAXA DCT ORVIX ORVIX2S |
| Aircraft | A321/M-SDE3FGHIRWY/LB1 |
Departure
| Time | 2026-05-05 17:54 |
|---|---|
| Airport | Hamburg Helmut Schmidt Airport (EDDH) |
Arrival
| Time | 2026-05-05 19:10 |
|---|---|
| Airport | Riga International Airport (EVRA) |
| Time | Latitude | Longitude | Altitude | Speed | Heading |
|---|---|---|---|---|---|
| 2026-05-05 17:27 | 53.63111 | 10.00369 | 51 ft | 0 kts | 87° |
| 2026-05-05 17:30 | 53.63111 | 10.00368 | 51 ft | 0 kts | 87° |
| 2026-05-05 17:45 | 53.63110 | 10.00344 | 48 ft | 4 kts | 87° |
| 2026-05-05 17:45 | 53.63109 | 10.00309 | 46 ft | 4 kts | 90° |
| 2026-05-05 17:46 | 53.63113 | 10.00268 | 46 ft | 4 kts | 130° |
| 2026-05-05 17:46 | 53.63130 | 10.00254 | 47 ft | 4 kts | 176° |
| 2026-05-05 17:46 | 53.63146 | 10.00253 | 46 ft | 0 kts | 176° |
| 2026-05-05 17:50 | 53.63143 | 10.00253 | 46 ft | 2 kts | 176° |
| 2026-05-05 17:50 | 53.63101 | 10.00258 | 48 ft | 7 kts | 176° |
| 2026-05-05 17:50 | 53.63048 | 10.00240 | 51 ft | 9 kts | 207° |
| 2026-05-05 17:50 | 53.62997 | 10.00187 | 48 ft | 10 kts | 212° |
| 2026-05-05 17:51 | 53.62934 | 10.00120 | 51 ft | 10 kts | 212° |
| 2026-05-05 17:51 | 53.62878 | 10.00055 | 49 ft | 9 kts | 226° |
| 2026-05-05 17:51 | 53.62848 | 9.99974 | 52 ft | 7 kts | 241° |
| 2026-05-05 17:51 | 53.62839 | 9.99945 | 52 ft | 0 kts | 241° |
| 2026-05-05 17:52 | 53.62834 | 9.99931 | 49 ft | 3 kts | 241° |
| 2026-05-05 17:53 | 53.62815 | 9.99871 | 51 ft | 10 kts | 241° |
| 2026-05-05 17:53 | 53.62828 | 9.99775 | 52 ft | 9 kts | 323° |
| 2026-05-05 17:53 | 53.62890 | 9.99722 | 53 ft | 17 kts | 333° |
| 2026-05-05 17:53 | 53.63192 | 9.99463 | 51 ft | 84 kts | 332° |
| 2026-05-05 17:54 | 53.63899 | 9.98851 | 50 ft | 142 kts | 333° |
| 2026-05-05 17:54 | 53.64898 | 9.97977 | 201 ft | 171 kts | 335° |
| 2026-05-05 17:54 | 53.65944 | 9.97067 | 817 ft | 170 kts | 335° |
| 2026-05-05 17:54 | 53.67012 | 9.96151 | 1482 ft | 173 kts | 337° |
| 2026-05-05 17:55 | 53.68116 | 9.95209 | 1970 ft | 187 kts | 336° |
| 2026-05-05 17:55 | 53.69404 | 9.94635 | 2254 ft | 203 kts | 1° |
| 2026-05-05 17:55 | 53.70848 | 9.94676 | 2832 ft | 210 kts | 2° |
| 2026-05-05 17:55 | 53.72313 | 9.94759 | 3620 ft | 212 kts | 12° |
| 2026-05-05 17:56 | 53.73634 | 9.95820 | 4268 ft | 218 kts | 42° |
| 2026-05-05 17:56 | 53.74517 | 9.98041 | 4608 ft | 242 kts | 64° |
| 2026-05-05 17:56 | 53.75279 | 10.00710 | 5070 ft | 260 kts | 64° |
| 2026-05-05 17:56 | 53.76072 | 10.03513 | 5750 ft | 268 kts | 64° |
| 2026-05-05 17:57 | 53.76889 | 10.06388 | 6454 ft | 276 kts | 64° |
| 2026-05-05 17:57 | 53.77734 | 10.09348 | 7142 ft | 283 kts | 63° |
| 2026-05-05 17:57 | 53.78597 | 10.12363 | 7876 ft | 288 kts | 63° |
| 2026-05-05 17:57 | 53.79462 | 10.15378 | 8593 ft | 292 kts | 63° |
| 2026-05-05 17:58 | 53.80356 | 10.18497 | 9307 ft | 297 kts | 63° |
| 2026-05-05 17:58 | 53.81267 | 10.21678 | 10001 ft | 302 kts | 63° |
| 2026-05-05 17:58 | 53.82198 | 10.24922 | 10542 ft | 313 kts | 63° |
| 2026-05-05 17:58 | 53.83186 | 10.28357 | 10703 ft | 336 kts | 63° |
| 2026-05-05 17:59 | 53.84232 | 10.32004 | 11063 ft | 349 kts | 63° |
| 2026-05-05 17:59 | 53.85296 | 10.35730 | 11661 ft | 354 kts | 64° |
| 2026-05-05 17:59 | 53.86373 | 10.39513 | 12320 ft | 358 kts | 64° |
| 2026-05-05 17:59 | 53.87456 | 10.43333 | 12981 ft | 362 kts | 64° |
| 2026-05-05 18:00 | 53.88550 | 10.47202 | 13648 ft | 366 kts | 64° |
| 2026-05-05 18:00 | 53.89647 | 10.51081 | 14223 ft | 370 kts | 64° |
| 2026-05-05 18:00 | 53.90768 | 10.55043 | 14786 ft | 374 kts | 64° |
| 2026-05-05 18:00 | 53.91896 | 10.59044 | 15347 ft | 378 kts | 64° |
| 2026-05-05 18:01 | 53.93035 | 10.63092 | 15927 ft | 382 kts | 63° |
| 2026-05-05 18:01 | 53.94374 | 10.67006 | 16454 ft | 385 kts | 52° |
| 2026-05-05 18:01 | 53.96112 | 10.70477 | 16995 ft | 387 kts | 44° |
| 2026-05-05 18:01 | 53.97973 | 10.73821 | 17523 ft | 391 kts | 44° |
| 2026-05-05 18:02 | 53.99847 | 10.77215 | 18061 ft | 395 kts | 44° |
| 2026-05-05 18:02 | 54.01733 | 10.80653 | 18524 ft | 399 kts | 45° |
| 2026-05-05 18:02 | 54.03630 | 10.84117 | 18974 ft | 403 kts | 45° |
| 2026-05-05 18:02 | 54.05547 | 10.87623 | 19426 ft | 406 kts | 45° |
| 2026-05-05 18:03 | 54.07480 | 10.91166 | 19868 ft | 410 kts | 45° |
| 2026-05-05 18:03 | 54.09426 | 10.94745 | 20303 ft | 413 kts | 45° |
| 2026-05-05 18:03 | 54.11390 | 10.98355 | 20723 ft | 416 kts | 45° |
| 2026-05-05 18:03 | 54.13368 | 11.01995 | 21140 ft | 420 kts | 45° |
| 2026-05-05 18:04 | 54.15352 | 11.05655 | 21539 ft | 423 kts | 45° |
| 2026-05-05 18:04 | 54.17352 | 11.09365 | 21948 ft | 426 kts | 45° |
| 2026-05-05 18:04 | 54.19362 | 11.13111 | 22336 ft | 429 kts | 45° |
| 2026-05-05 18:04 | 54.21384 | 11.16892 | 22713 ft | 432 kts | 45° |
| 2026-05-05 18:05 | 54.23414 | 11.20691 | 23094 ft | 435 kts | 45° |
| 2026-05-05 18:05 | 54.25462 | 11.24529 | 23475 ft | 438 kts | 45° |
| 2026-05-05 18:05 | 54.27524 | 11.28396 | 23795 ft | 441 kts | 45° |
| 2026-05-05 18:05 | 54.29573 | 11.32239 | 24129 ft | 444 kts | 45° |
| 2026-05-05 18:06 | 54.31685 | 11.36198 | 24447 ft | 447 kts | 45° |
| 2026-05-05 18:06 | 54.32368 | 11.37479 | 24556 ft | 448 kts | 45° |
| 2026-05-05 18:06 | 54.35896 | 11.44118 | 25103 ft | 453 kts | 45° |
| 2026-05-05 18:06 | 54.38023 | 11.48135 | 25428 ft | 456 kts | 45° |
| 2026-05-05 18:07 | 54.39434 | 11.50804 | 25647 ft | 458 kts | 45° |
| 2026-05-05 18:07 | 54.41579 | 11.54867 | 25973 ft | 460 kts | 45° |
| 2026-05-05 18:07 | 54.43739 | 11.58963 | 26304 ft | 463 kts | 45° |
| 2026-05-05 18:07 | 54.45892 | 11.63098 | 26621 ft | 467 kts | 48° |
| 2026-05-05 18:08 | 54.47797 | 11.67672 | 26930 ft | 472 kts | 58° |
| 2026-05-05 18:08 | 54.49980 | 11.74180 | 27332 ft | 477 kts | 59° |
| 2026-05-05 18:08 | 54.51092 | 11.77530 | 27538 ft | 479 kts | 59° |
| 2026-05-05 18:08 | 54.52747 | 11.82528 | 27837 ft | 482 kts | 59° |
| 2026-05-05 18:09 | 54.54407 | 11.87543 | 28134 ft | 485 kts | 59° |
| 2026-05-05 18:09 | 54.56084 | 11.92609 | 28418 ft | 488 kts | 59° |
| 2026-05-05 18:09 | 54.57770 | 11.97707 | 28707 ft | 491 kts | 59° |
| 2026-05-05 18:09 | 54.59462 | 12.02834 | 29003 ft | 493 kts | 59° |
| 2026-05-05 18:10 | 54.61157 | 12.07982 | 29297 ft | 496 kts | 59° |
| 2026-05-05 18:10 | 54.62868 | 12.13182 | 29576 ft | 499 kts | 59° |
| 2026-05-05 18:10 | 54.64579 | 12.18396 | 29839 ft | 501 kts | 59° |
| 2026-05-05 18:10 | 54.66304 | 12.23662 | 30098 ft | 504 kts | 59° |
| 2026-05-05 18:11 | 54.68029 | 12.28950 | 30339 ft | 506 kts | 59° |
| 2026-05-05 18:11 | 54.69759 | 12.34269 | 30585 ft | 508 kts | 59° |
| 2026-05-05 18:11 | 54.71493 | 12.39612 | 30826 ft | 509 kts | 59° |
| 2026-05-05 18:11 | 54.73225 | 12.44953 | 31073 ft | 511 kts | 59° |
| 2026-05-05 18:12 | 54.74964 | 12.50330 | 31278 ft | 512 kts | 59° |
| 2026-05-05 18:12 | 54.76697 | 12.55721 | 31613 ft | 511 kts | 59° |
| 2026-05-05 18:12 | 54.78403 | 12.61099 | 31939 ft | 510 kts | 60° |
| 2026-05-05 18:12 | 54.80058 | 12.66547 | 32273 ft | 509 kts | 61° |
| 2026-05-05 18:13 | 54.81649 | 12.72034 | 32618 ft | 508 kts | 62° |
| 2026-05-05 18:13 | 54.83192 | 12.77523 | 32947 ft | 507 kts | 63° |
| 2026-05-05 18:13 | 54.84721 | 12.83036 | 33290 ft | 506 kts | 63° |
| 2026-05-05 18:13 | 54.86246 | 12.88537 | 33626 ft | 504 kts | 63° |
| 2026-05-05 18:14 | 54.87774 | 12.94002 | 33949 ft | 503 kts | 62° |
| 2026-05-05 18:14 | 54.89301 | 12.99405 | 34219 ft | 502 kts | 62° |
| 2026-05-05 18:14 | 54.90843 | 13.04823 | 34482 ft | 501 kts | 62° |
| 2026-05-05 18:14 | 54.92387 | 13.10250 | 34750 ft | 500 kts | 62° |
| 2026-05-05 18:15 | 54.93917 | 13.15656 | 35003 ft | 499 kts | 62° |
| 2026-05-05 18:15 | 54.95446 | 13.21081 | 35253 ft | 498 kts | 63° |
| 2026-05-05 18:15 | 54.96965 | 13.26495 | 35502 ft | 497 kts | 63° |
| 2026-05-05 18:15 | 54.98474 | 13.31892 | 35744 ft | 496 kts | 63° |
| 2026-05-05 18:16 | 54.99984 | 13.37302 | 35975 ft | 496 kts | 63° |
| 2026-05-05 18:16 | 55.01491 | 13.42707 | 36206 ft | 495 kts | 63° |
| 2026-05-05 18:16 | 55.02990 | 13.48107 | 36424 ft | 494 kts | 63° |
| 2026-05-05 18:16 | 55.04481 | 13.53510 | 36645 ft | 494 kts | 63° |
| 2026-05-05 18:17 | 55.05961 | 13.58892 | 36841 ft | 493 kts | 63° |
| 2026-05-05 18:17 | 55.08919 | 13.69656 | 36918 ft | 489 kts | 63° |
| 2026-05-05 18:18 | 55.11859 | 13.80367 | 36919 ft | 488 kts | 63° |
| 2026-05-05 18:18 | 55.14787 | 13.91080 | 36929 ft | 488 kts | 63° |
| 2026-05-05 18:19 | 55.17679 | 14.01723 | 36913 ft | 487 kts | 63° |
| 2026-05-05 18:19 | 55.20577 | 14.12448 | 36913 ft | 487 kts | 64° |
| 2026-05-05 18:20 | 55.23473 | 14.23220 | 36916 ft | 488 kts | 64° |
| 2026-05-05 18:20 | 55.26356 | 14.33986 | 36931 ft | 488 kts | 64° |
| 2026-05-05 18:21 | 55.29229 | 14.44766 | 36937 ft | 488 kts | 64° |
| 2026-05-05 18:21 | 55.32097 | 14.55582 | 36937 ft | 488 kts | 64° |
| 2026-05-05 18:22 | 55.34951 | 14.66383 | 36935 ft | 487 kts | 64° |
| 2026-05-05 18:22 | 55.37794 | 14.77213 | 36922 ft | 487 kts | 64° |
| 2026-05-05 18:23 | 55.40612 | 14.87976 | 36931 ft | 487 kts | 64° |
| 2026-05-05 18:23 | 55.43438 | 14.98831 | 36934 ft | 487 kts | 64° |
| 2026-05-05 18:24 | 55.46255 | 15.09716 | 36944 ft | 487 kts | 64° |
| 2026-05-05 18:24 | 55.49051 | 15.20580 | 36942 ft | 487 kts | 64° |
| 2026-05-05 18:25 | 55.51846 | 15.31474 | 36927 ft | 487 kts | 65° |
| 2026-05-05 18:25 | 55.54608 | 15.42308 | 36936 ft | 487 kts | 65° |
| 2026-05-05 18:26 | 55.57380 | 15.53228 | 36929 ft | 486 kts | 65° |
| 2026-05-05 18:26 | 55.60140 | 15.64159 | 36932 ft | 486 kts | 65° |
| 2026-05-05 18:27 | 55.62895 | 15.75098 | 36934 ft | 486 kts | 65° |
| 2026-05-05 18:27 | 55.65640 | 15.86054 | 36937 ft | 486 kts | 65° |
| 2026-05-05 18:28 | 55.69728 | 16.02494 | 36932 ft | 486 kts | 65° |
| 2026-05-05 18:28 | 55.72440 | 16.13472 | 36930 ft | 486 kts | 65° |
| 2026-05-05 18:29 | 55.75139 | 16.24471 | 36933 ft | 486 kts | 65° |
| 2026-05-05 18:29 | 55.77831 | 16.35496 | 36936 ft | 486 kts | 65° |
| 2026-05-05 18:30 | 55.80515 | 16.46528 | 36933 ft | 486 kts | 65° |
| 2026-05-05 18:30 | 55.83195 | 16.57563 | 36934 ft | 486 kts | 65° |
| 2026-05-05 18:31 | 55.85861 | 16.68604 | 36935 ft | 485 kts | 66° |
| 2026-05-05 18:31 | 55.88509 | 16.79653 | 36934 ft | 485 kts | 66° |
| 2026-05-05 18:32 | 55.91129 | 16.90629 | 36931 ft | 485 kts | 66° |
| 2026-05-05 18:32 | 55.93762 | 17.01715 | 36929 ft | 484 kts | 66° |
| 2026-05-05 18:33 | 55.96371 | 17.12785 | 36929 ft | 484 kts | 66° |
| 2026-05-05 18:33 | 55.98974 | 17.23890 | 36926 ft | 484 kts | 66° |
| 2026-05-05 18:34 | 56.01570 | 17.34997 | 36935 ft | 484 kts | 66° |
| 2026-05-05 18:34 | 56.04152 | 17.46118 | 36933 ft | 484 kts | 66° |
| 2026-05-05 18:35 | 56.06707 | 17.57185 | 36932 ft | 484 kts | 66° |
| 2026-05-05 18:35 | 56.09274 | 17.68341 | 36932 ft | 484 kts | 66° |
| 2026-05-05 18:36 | 56.11828 | 17.79503 | 36929 ft | 484 kts | 66° |
| 2026-05-05 18:36 | 56.14377 | 17.90703 | 36932 ft | 485 kts | 67° |
| 2026-05-05 18:37 | 56.16916 | 18.01904 | 36933 ft | 485 kts | 67° |
| 2026-05-05 18:37 | 56.19449 | 18.13147 | 36935 ft | 485 kts | 67° |
| 2026-05-05 18:38 | 56.21974 | 18.24415 | 36939 ft | 486 kts | 67° |
| 2026-05-05 18:38 | 56.23760 | 18.36107 | 36930 ft | 486 kts | 79° |
| 2026-05-05 18:39 | 56.25110 | 18.48015 | 36933 ft | 487 kts | 78° |
| 2026-05-05 18:39 | 56.26470 | 18.59965 | 36935 ft | 487 kts | 78° |
| 2026-05-05 18:40 | 56.28218 | 18.71675 | 36939 ft | 486 kts | 69° |
| 2026-05-05 18:40 | 56.30501 | 18.83153 | 36940 ft | 487 kts | 70° |
| 2026-05-05 18:41 | 56.32783 | 18.94657 | 36942 ft | 487 kts | 70° |
| 2026-05-05 18:41 | 56.35052 | 19.06168 | 36948 ft | 487 kts | 70° |
| 2026-05-05 18:42 | 56.37318 | 19.17715 | 36946 ft | 487 kts | 70° |
| 2026-05-05 18:42 | 56.39572 | 19.29251 | 36942 ft | 487 kts | 70° |
| 2026-05-05 18:43 | 56.41814 | 19.40810 | 36931 ft | 488 kts | 73° |
| 2026-05-05 18:43 | 56.43025 | 19.52778 | 36935 ft | 488 kts | 81° |
| 2026-05-05 18:44 | 56.44083 | 19.64896 | 36942 ft | 488 kts | 82° |
| 2026-05-05 18:44 | 56.45129 | 19.77012 | 36730 ft | 487 kts | 82° |
| 2026-05-05 18:45 | 56.45650 | 19.83069 | 36468 ft | 487 kts | 82° |
| 2026-05-05 18:45 | 56.46173 | 19.89123 | 36213 ft | 487 kts | 82° |
| 2026-05-05 18:45 | 56.46693 | 19.95180 | 35956 ft | 487 kts | 82° |
| 2026-05-05 18:45 | 56.47206 | 20.01222 | 35693 ft | 487 kts | 82° |
| 2026-05-05 18:46 | 56.47714 | 20.07289 | 35452 ft | 488 kts | 82° |
| 2026-05-05 18:46 | 56.48048 | 20.11305 | 35288 ft | 488 kts | 82° |
| 2026-05-05 18:46 | 56.48552 | 20.17382 | 35045 ft | 488 kts | 82° |
| 2026-05-05 18:46 | 56.49215 | 20.25451 | 34725 ft | 489 kts | 82° |
| 2026-05-05 18:47 | 56.49711 | 20.31543 | 34481 ft | 489 kts | 82° |
| 2026-05-05 18:47 | 56.50046 | 20.35656 | 34318 ft | 489 kts | 82° |
| 2026-05-05 18:47 | 56.50541 | 20.41760 | 34085 ft | 490 kts | 82° |
| 2026-05-05 18:47 | 56.51034 | 20.47853 | 33846 ft | 490 kts | 82° |
| 2026-05-05 18:48 | 56.51527 | 20.53974 | 33553 ft | 491 kts | 82° |
| 2026-05-05 18:48 | 56.52017 | 20.60101 | 33282 ft | 491 kts | 82° |
| 2026-05-05 18:48 | 56.52496 | 20.66154 | 33009 ft | 491 kts | 83° |
| 2026-05-05 18:48 | 56.52973 | 20.72271 | 32735 ft | 489 kts | 83° |
| 2026-05-05 18:49 | 56.53446 | 20.78373 | 32466 ft | 488 kts | 83° |
| 2026-05-05 18:49 | 56.53910 | 20.84435 | 32198 ft | 486 kts | 83° |
| 2026-05-05 18:49 | 56.54373 | 20.90499 | 31928 ft | 484 kts | 83° |
| 2026-05-05 18:49 | 56.54834 | 20.96542 | 31660 ft | 483 kts | 83° |
| 2026-05-05 18:50 | 56.55293 | 21.02564 | 31418 ft | 481 kts | 83° |
| 2026-05-05 18:50 | 56.55748 | 21.08562 | 30983 ft | 478 kts | 84° |
| 2026-05-05 18:50 | 56.56194 | 21.14502 | 30367 ft | 476 kts | 84° |
| 2026-05-05 18:50 | 56.56635 | 21.20441 | 29742 ft | 473 kts | 84° |
| 2026-05-05 18:51 | 56.57069 | 21.26341 | 29137 ft | 469 kts | 84° |
| 2026-05-05 18:51 | 56.57496 | 21.32182 | 28563 ft | 465 kts | 84° |
| 2026-05-05 18:51 | 56.57916 | 21.37952 | 27992 ft | 460 kts | 84° |
| 2026-05-05 18:51 | 56.58335 | 21.43692 | 27431 ft | 456 kts | 84° |
| 2026-05-05 18:52 | 56.58748 | 21.49371 | 26881 ft | 451 kts | 85° |
| 2026-05-05 18:52 | 56.59153 | 21.54997 | 26350 ft | 447 kts | 85° |
| 2026-05-05 18:52 | 56.59549 | 21.60560 | 25832 ft | 441 kts | 85° |
| 2026-05-05 18:52 | 56.59937 | 21.66041 | 25331 ft | 436 kts | 85° |
| 2026-05-05 18:53 | 56.60321 | 21.71478 | 24832 ft | 432 kts | 85° |
| 2026-05-05 18:53 | 56.60693 | 21.76792 | 24349 ft | 428 kts | 85° |
| 2026-05-05 18:53 | 56.61062 | 21.82139 | 23860 ft | 425 kts | 85° |
| 2026-05-05 18:53 | 56.61426 | 21.87453 | 23340 ft | 422 kts | 85° |
| 2026-05-05 18:54 | 56.61785 | 21.92725 | 22820 ft | 418 kts | 85° |
| 2026-05-05 18:54 | 56.62138 | 21.97925 | 22334 ft | 414 kts | 85° |
| 2026-05-05 18:54 | 56.62487 | 22.03088 | 21835 ft | 410 kts | 85° |
| 2026-05-05 18:54 | 56.62830 | 22.08211 | 21347 ft | 406 kts | 85° |
| 2026-05-05 18:55 | 56.63166 | 22.13289 | 20850 ft | 404 kts | 85° |
| 2026-05-05 18:55 | 56.63499 | 22.18342 | 20349 ft | 401 kts | 85° |
| 2026-05-05 18:55 | 56.63831 | 22.23369 | 19853 ft | 399 kts | 85° |
| 2026-05-05 18:55 | 56.64159 | 22.28360 | 19363 ft | 397 kts | 85° |
| 2026-05-05 18:56 | 56.64486 | 22.33339 | 18865 ft | 396 kts | 85° |
| 2026-05-05 18:56 | 56.64810 | 22.38301 | 18373 ft | 394 kts | 85° |
| 2026-05-05 18:56 | 56.65127 | 22.43246 | 17847 ft | 393 kts | 85° |
| 2026-05-05 18:56 | 56.65439 | 22.48161 | 17363 ft | 389 kts | 85° |
| 2026-05-05 18:57 | 56.65743 | 22.52967 | 16889 ft | 386 kts | 85° |
| 2026-05-05 18:57 | 56.66048 | 22.57845 | 16415 ft | 383 kts | 85° |
| 2026-05-05 18:57 | 56.66347 | 22.62638 | 15959 ft | 380 kts | 85° |
| 2026-05-05 18:57 | 56.66640 | 22.67331 | 15496 ft | 377 kts | 85° |
| 2026-05-05 18:58 | 56.66936 | 22.72073 | 15048 ft | 374 kts | 84° |
| 2026-05-05 18:58 | 56.67226 | 22.76766 | 14587 ft | 371 kts | 84° |
| 2026-05-05 18:58 | 56.67510 | 22.81432 | 14136 ft | 369 kts | 84° |
| 2026-05-05 18:58 | 56.67789 | 22.86058 | 13674 ft | 367 kts | 84° |
| 2026-05-05 18:59 | 56.68064 | 22.90652 | 13186 ft | 364 kts | 84° |
| 2026-05-05 18:59 | 56.68337 | 22.95209 | 12733 ft | 360 kts | 85° |
| 2026-05-05 18:59 | 56.68601 | 22.99665 | 12288 ft | 356 kts | 85° |
| 2026-05-05 18:59 | 56.68866 | 23.04127 | 11837 ft | 353 kts | 85° |
| 2026-05-05 19:00 | 56.69127 | 23.08544 | 11384 ft | 350 kts | 85° |
| 2026-05-05 19:00 | 56.69383 | 23.12919 | 10931 ft | 347 kts | 85° |
| 2026-05-05 19:00 | 56.69636 | 23.17278 | 10481 ft | 344 kts | 85° |
| 2026-05-05 19:00 | 56.69884 | 23.21592 | 10106 ft | 339 kts | 85° |
| 2026-05-05 19:01 | 56.70124 | 23.25780 | 9963 ft | 326 kts | 85° |
| 2026-05-05 19:01 | 56.70356 | 23.29838 | 9662 ft | 320 kts | 86° |
| 2026-05-05 19:01 | 56.70583 | 23.33843 | 9357 ft | 317 kts | 86° |
| 2026-05-05 19:01 | 56.70808 | 23.37844 | 8894 ft | 315 kts | 85° |
| 2026-05-05 19:02 | 56.71030 | 23.41803 | 8436 ft | 314 kts | 85° |
| 2026-05-05 19:02 | 56.71248 | 23.45719 | 8028 ft | 310 kts | 85° |
| 2026-05-05 19:02 | 56.71465 | 23.49604 | 7634 ft | 307 kts | 85° |
| 2026-05-05 19:02 | 56.71680 | 23.53479 | 7176 ft | 306 kts | 86° |
| 2026-05-05 19:03 | 56.71890 | 23.57279 | 6828 ft | 301 kts | 85° |
| 2026-05-05 19:03 | 56.72094 | 23.61011 | 6415 ft | 299 kts | 86° |
| 2026-05-05 19:03 | 56.72297 | 23.64781 | 5998 ft | 296 kts | 86° |
| 2026-05-05 19:03 | 56.72495 | 23.68460 | 5744 ft | 287 kts | 86° |
| 2026-05-05 19:04 | 56.72686 | 23.71999 | 5597 ft | 275 kts | 86° |
| 2026-05-05 19:04 | 56.72854 | 23.75433 | 5314 ft | 269 kts | 91° |
| 2026-05-05 19:04 | 56.72735 | 23.78811 | 4858 ft | 271 kts | 97° |
| 2026-05-05 19:04 | 56.72568 | 23.82199 | 4278 ft | 266 kts | 96° |
| 2026-05-05 19:05 | 56.72413 | 23.85425 | 4031 ft | 245 kts | 95° |
| 2026-05-05 19:05 | 56.72577 | 23.88467 | 3641 ft | 241 kts | 72° |
| 2026-05-05 19:05 | 56.73304 | 23.91118 | 3478 ft | 227 kts | 51° |
| 2026-05-05 19:05 | 56.74399 | 23.93058 | 3285 ft | 214 kts | 32° |
| 2026-05-05 19:06 | 56.75697 | 23.94210 | 3070 ft | 202 kts | 13° |
| 2026-05-05 19:06 | 56.77050 | 23.94605 | 2815 ft | 190 kts | 1° |
| 2026-05-05 19:06 | 56.78340 | 23.94816 | 2558 ft | 181 kts | 2° |
| 2026-05-05 19:06 | 56.79546 | 23.95015 | 2323 ft | 168 kts | 1° |
| 2026-05-05 19:07 | 56.80693 | 23.95203 | 2099 ft | 161 kts | 2° |
| 2026-05-05 19:07 | 56.81754 | 23.95377 | 1901 ft | 149 kts | 2° |
| 2026-05-05 19:07 | 56.82754 | 23.95541 | 1699 ft | 139 kts | 2° |
| 2026-05-05 19:07 | 56.83695 | 23.95695 | 1502 ft | 133 kts | 2° |
| 2026-05-05 19:08 | 56.84611 | 23.95844 | 1328 ft | 131 kts | 2° |
| 2026-05-05 19:08 | 56.85512 | 23.95992 | 1136 ft | 129 kts | 3° |
| 2026-05-05 19:08 | 56.86415 | 23.96140 | 949 ft | 130 kts | 4° |
| 2026-05-05 19:08 | 56.87317 | 23.96285 | 743 ft | 130 kts | 4° |
| 2026-05-05 19:09 | 56.88220 | 23.96435 | 556 ft | 130 kts | 4° |
| 2026-05-05 19:09 | 56.89122 | 23.96587 | 380 ft | 129 kts | 5° |
| 2026-05-05 19:09 | 56.90021 | 23.96735 | 218 ft | 130 kts | 5° |
| 2026-05-05 19:09 | 56.90923 | 23.96879 | 59 ft | 129 kts | 5° |
| 2026-05-05 19:10 | 56.91755 | 23.97019 | 36 ft | 103 kts | 5° |
| 2026-05-05 19:10 | 56.92258 | 23.97104 | 38 ft | 40 kts | 6° |
| 2026-05-05 19:10 | 56.92445 | 23.97227 | 34 ft | 27 kts | 33° |
| 2026-05-05 19:10 | 56.92587 | 23.97407 | 35 ft | 16 kts | 37° |
| 2026-05-05 19:11 | 56.92586 | 23.97545 | 35 ft | 11 kts | 163° |
| 2026-05-05 19:11 | 56.92516 | 23.97536 | 35 ft | 10 kts | 185° |
| 2026-05-05 19:11 | 56.92435 | 23.97523 | 35 ft | 15 kts | 186° |
| 2026-05-05 19:11 | 56.92333 | 23.97496 | 35 ft | 15 kts | 187° |
| 2026-05-05 19:12 | 56.92234 | 23.97480 | 35 ft | 14 kts | 185° |
| 2026-05-05 19:12 | 56.92159 | 23.97479 | 35 ft | 10 kts | 158° |
| 2026-05-05 19:12 | 56.92138 | 23.97579 | 35 ft | 9 kts | 96° |
| 2026-05-05 19:12 | 56.92143 | 23.97660 | 35 ft | 5 kts | 37° |
| 2026-05-05 19:13 | 56.92166 | 23.97665 | 35 ft | 4 kts | 8° |
| 2026-05-05 19:13 | 56.92182 | 23.97668 | 35 ft | 2 kts | 6° |
| 2026-05-05 19:13 | 56.92187 | 23.97669 | 35 ft | 0 kts | 6° |